createdAt,value
2018-02-25T00:02:08.100Z,55.70
2018-02-25T00:05:11.543Z,55.80
2018-02-25T00:08:15.765Z,56.40
2018-02-25T00:11:19.913Z,56.40
2018-02-25T00:14:23.328Z,55.80
2018-02-25T00:17:27.032Z,56.10
2018-02-25T00:20:30.588Z,56.10
2018-02-25T00:23:34.735Z,57.30
2018-02-25T00:26:38.835Z,56.80
2018-02-25T00:29:42.969Z,56.90
2018-02-25T00:32:47.158Z,57.00
2018-02-25T00:35:50.643Z,56.60
2018-02-25T00:38:54.192Z,56.80
2018-02-25T00:41:57.580Z,58.20
2018-02-25T00:45:02.118Z,58.50
2018-02-25T00:48:05.499Z,58.10
2018-02-25T00:51:09.974Z,58.50
2018-02-25T00:54:13.287Z,58.20
2018-02-25T00:57:16.681Z,58.80
2018-02-25T01:00:20.116Z,59.40
2018-02-25T01:03:24.298Z,59.80
2018-02-25T01:06:27.648Z,59.50
2018-02-25T01:09:31.060Z,59.70
2018-02-25T01:12:34.430Z,60.20
2018-02-25T01:15:37.873Z,60.60
2018-02-25T01:18:41.585Z,61.00
2018-02-25T01:21:44.935Z,61.00
2018-02-25T01:24:49.223Z,61.40
2018-02-25T01:27:52.716Z,60.90
2018-02-25T01:30:56.130Z,61.00
2018-02-25T01:33:59.462Z,61.10
2018-02-25T01:37:03.745Z,61.40
2018-02-25T01:40:07.138Z,61.10
2018-02-25T01:43:11.341Z,61.10
2018-02-25T01:46:15.061Z,60.80
2018-02-25T01:49:18.530Z,60.60
2018-02-25T01:52:21.908Z,60.90
2018-02-25T01:55:25.284Z,60.90
2018-02-25T01:58:29.437Z,61.90
2018-02-25T02:01:32.905Z,61.30
2018-02-25T02:04:37.053Z,61.60
2018-02-25T02:07:40.567Z,61.30
2018-02-25T02:10:43.897Z,61.50
2018-02-25T02:13:47.388Z,62.10
2018-02-25T02:16:50.984Z,61.70
2018-02-25T02:19:54.690Z,62.30
2018-02-25T02:22:57.995Z,61.50
2018-02-25T02:26:01.646Z,62.00
2018-02-25T02:29:05.793Z,61.70
2018-02-25T02:32:09.991Z,61.60
2018-02-25T02:35:14.149Z,61.90
2018-02-25T02:38:18.352Z,61.40
2018-02-25T02:41:22.142Z,60.90
2018-02-25T02:44:25.556Z,61.20
2018-02-25T02:47:28.955Z,61.20
2018-02-25T02:50:33.125Z,61.80
2018-02-25T02:53:36.480Z,61.40
2018-02-25T02:56:39.852Z,61.80
2018-02-25T02:59:43.238Z,61.90
2018-02-25T03:02:46.748Z,62.00
2018-02-25T03:05:50.224Z,62.20
2018-02-25T03:08:54.046Z,62.40
2018-02-25T03:11:57.501Z,62.40
2018-02-25T03:15:01.314Z,62.70
2018-02-25T03:18:04.749Z,63.00
2018-02-25T03:21:09.088Z,63.70
2018-02-25T03:24:12.446Z,63.30
2018-02-25T03:27:15.818Z,63.50
2018-02-25T03:30:19.204Z,63.20
2018-02-25T03:33:22.603Z,63.20
2018-02-25T03:36:26.023Z,63.50
2018-02-25T03:39:29.406Z,63.70
2018-02-25T03:42:32.837Z,63.80
2018-02-25T03:45:36.308Z,63.90
2018-02-25T03:48:39.712Z,64.00
2018-02-25T03:51:43.116Z,64.30
2018-02-25T03:54:46.802Z,64.30
2018-02-25T03:57:50.424Z,64.20
2018-02-25T04:00:53.806Z,64.40
2018-02-25T04:03:57.188Z,64.80
2018-02-25T04:07:00.568Z,64.60
2018-02-25T04:10:04.719Z,65.60
2018-02-25T04:13:08.095Z,65.10
2018-02-25T04:16:12.228Z,65.60
2018-02-25T04:19:15.264Z,65.00
2018-02-25T04:22:19.451Z,65.20
2018-02-25T04:25:22.832Z,64.40
2018-02-25T04:28:26.228Z,64.70
2018-02-25T04:31:29.785Z,64.60
2018-02-25T04:34:33.994Z,64.70
2018-02-25T04:37:37.459Z,64.10
2018-02-25T04:40:40.934Z,63.90
2018-02-25T04:46:54.694Z,64.80
2018-02-25T04:49:58.847Z,64.50
2018-02-25T04:53:02.205Z,63.70
2018-02-25T04:56:06.025Z,64.00
2018-02-25T04:59:09.434Z,63.90
2018-02-25T05:02:13.232Z,64.20
2018-02-25T05:05:17.362Z,64.80
2018-02-25T05:08:21.477Z,64.70
2018-02-25T05:11:24.845Z,64.20
2018-02-25T05:14:28.998Z,63.80
2018-02-25T05:17:32.326Z,63.30
2018-02-25T05:20:35.726Z,62.80
2018-02-25T05:23:39.058Z,62.60
2018-02-25T05:26:42.509Z,61.30
2018-02-25T05:29:46.192Z,61.30
2018-02-25T05:32:49.526Z,61.10
2018-02-25T05:35:53.765Z,61.80
2018-02-25T05:38:57.171Z,61.30
2018-02-25T05:42:01.325Z,61.30
2018-02-25T05:45:05.089Z,60.80
2018-02-25T05:48:08.463Z,60.90
2018-02-25T05:51:12.121Z,60.80
2018-02-25T05:54:15.602Z,60.70
2018-02-25T05:57:19.738Z,60.50
2018-02-25T06:00:23.830Z,60.10
2018-02-25T06:03:27.412Z,59.90
2018-02-25T06:06:30.863Z,59.70
2018-02-25T06:09:34.997Z,60.60
2018-02-25T06:12:38.352Z,60.20
2018-02-25T06:15:42.428Z,61.10
2018-02-25T06:18:45.699Z,60.80
2018-02-25T06:21:49.079Z,61.20
2018-02-25T06:24:53.330Z,61.60
2018-02-25T06:27:56.648Z,61.20
2018-02-25T06:31:00.100Z,61.10
2018-02-25T06:34:03.447Z,61.50
2018-02-25T06:37:07.237Z,61.40
2018-02-25T06:40:10.534Z,60.50
2018-02-25T06:43:14.204Z,60.10
2018-02-25T06:46:17.552Z,59.50
2018-02-25T06:49:20.888Z,58.80
2018-02-25T06:52:24.163Z,58.60
2018-02-25T06:55:28.320Z,59.90
2018-02-25T06:58:31.635Z,59.70
2018-02-25T07:01:35.088Z,59.80
2018-02-25T07:04:38.450Z,59.60
2018-02-25T07:07:41.784Z,59.80
2018-02-25T07:10:45.185Z,59.90
2018-02-25T07:13:48.565Z,59.90
2018-02-25T07:16:51.872Z,60.40
2018-02-25T07:19:55.255Z,60.00
2018-02-25T07:22:58.588Z,59.90
2018-02-25T07:26:02.694Z,60.10
2018-02-25T07:29:05.990Z,59.90
2018-02-25T07:32:09.318Z,60.30
2018-02-25T07:35:13.522Z,60.20
2018-02-25T07:38:16.980Z,60.00
2018-02-25T07:41:20.572Z,59.70
2018-02-25T07:44:23.923Z,59.60
2018-02-25T07:47:27.657Z,59.50
2018-02-25T07:50:32.091Z,58.80
2018-02-25T07:53:35.456Z,58.50
2018-02-25T07:56:38.866Z,58.60
2018-02-25T07:59:42.412Z,58.00
2018-02-25T08:02:45.793Z,58.00
2018-02-25T08:05:49.161Z,58.10
2018-02-25T08:08:53.625Z,58.20
2018-02-25T08:11:56.897Z,58.10
2018-02-25T08:15:00.198Z,57.80
2018-02-25T08:18:04.436Z,57.90
2018-02-25T08:21:07.708Z,57.80
2018-02-25T08:24:10.993Z,57.30
2018-02-25T08:27:14.323Z,57.10
2018-02-25T08:30:17.692Z,57.00
2018-02-25T08:33:20.929Z,56.80
2018-02-25T08:36:25.689Z,56.30
2018-02-25T08:39:29.740Z,53.60
2018-02-25T08:42:33.043Z,53.50
2018-02-25T08:45:36.393Z,53.20
2018-02-25T08:48:39.765Z,52.80
2018-02-25T08:51:43.065Z,52.20
2018-02-25T08:54:46.375Z,52.10
2018-02-25T08:57:50.030Z,51.00
2018-02-25T09:00:54.097Z,49.40
2018-02-25T09:03:57.833Z,49.10
2018-02-25T09:07:01.967Z,50.20
2018-02-25T09:10:05.287Z,50.00
2018-02-25T09:13:08.624Z,51.60
2018-02-25T09:16:12.734Z,49.90
2018-02-25T09:19:16.590Z,49.70
2018-02-25T09:22:19.999Z,47.90
2018-02-25T09:25:23.495Z,47.00
2018-02-25T09:28:26.895Z,46.00
2018-02-25T09:31:30.230Z,46.40
2018-02-25T09:34:33.603Z,45.20
2018-02-25T09:37:37.117Z,44.20
2018-02-25T09:40:40.604Z,42.60
2018-02-25T09:43:43.984Z,42.80
2018-02-25T09:46:47.355Z,42.80
2018-02-25T09:49:51.489Z,44.00
2018-02-25T09:52:54.861Z,43.60
2018-02-25T09:55:58.997Z,43.20
2018-02-25T09:59:03.393Z,42.30
2018-02-25T10:02:07.550Z,42.00
2018-02-25T10:05:10.959Z,41.80
2018-02-25T10:08:14.318Z,40.10
2018-02-25T10:11:18.678Z,37.70
2018-02-25T10:14:22.091Z,38.00
2018-02-25T10:17:26.213Z,35.60
2018-02-25T10:20:29.586Z,35.30
2018-02-25T10:23:32.945Z,35.20
2018-02-25T10:26:37.070Z,37.20
2018-02-25T10:29:41.213Z,36.70
2018-02-25T10:32:45.001Z,36.30
2018-02-25T10:35:48.328Z,34.20
2018-02-25T10:38:51.698Z,35.50
2018-02-25T10:41:55.115Z,36.50
2018-02-25T10:44:58.494Z,36.60
2018-02-25T10:48:02.689Z,37.80
2018-02-25T10:51:06.088Z,37.60
2018-02-25T10:54:09.488Z,38.60
2018-02-25T10:57:13.699Z,35.90
2018-02-25T11:00:22.955Z,35.50
2018-02-25T11:03:26.268Z,34.00
2018-02-25T11:06:29.986Z,32.90
2018-02-25T11:09:33.387Z,33.50
2018-02-25T11:12:36.823Z,33.50
2018-02-25T11:15:40.178Z,33.00
2018-02-25T11:18:43.601Z,33.40
2018-02-25T11:21:46.935Z,32.40
2018-02-25T11:24:50.368Z,33.80
2018-02-25T11:27:54.109Z,33.50
2018-02-25T11:30:57.490Z,32.00
2018-02-25T11:34:00.912Z,32.70
2018-02-25T11:37:04.381Z,32.30
2018-02-25T11:40:07.779Z,31.70
2018-02-25T11:43:11.883Z,31.80
2018-02-25T11:46:16.208Z,32.70
2018-02-25T11:49:20.353Z,31.90
2018-02-25T11:52:23.723Z,31.70
2018-02-25T11:55:27.366Z,32.60
2018-02-25T11:58:30.765Z,34.20
2018-02-25T12:01:34.157Z,33.20
2018-02-25T12:04:37.493Z,35.10
2018-02-25T12:07:40.956Z,35.70
2018-02-25T12:10:44.454Z,35.50
2018-02-25T12:13:47.828Z,35.50
2018-02-25T12:16:52.387Z,34.20
2018-02-25T12:19:55.780Z,33.90
2018-02-25T12:22:59.525Z,33.70
2018-02-25T12:26:02.891Z,33.60
2018-02-25T12:29:06.302Z,33.90
2018-02-25T12:32:09.642Z,35.30
2018-02-25T12:35:13.007Z,34.30
2018-02-25T12:38:16.569Z,35.00
2018-02-25T12:41:19.996Z,34.10
2018-02-25T12:44:23.459Z,34.30
2018-02-25T12:47:26.795Z,33.80
2018-02-25T12:50:30.127Z,32.30
2018-02-25T12:53:34.293Z,31.20
2018-02-25T12:56:37.760Z,31.00
2018-02-25T12:59:41.885Z,31.10
2018-02-25T13:02:45.981Z,30.90
2018-02-25T13:05:49.597Z,30.70
2018-02-25T13:08:53.685Z,31.50
2018-02-25T13:11:57.003Z,31.10
2018-02-25T13:15:01.124Z,32.10
2018-02-25T13:18:05.255Z,31.10
2018-02-25T13:21:09.388Z,31.20
2018-02-25T13:24:12.728Z,31.20
2018-02-25T13:27:16.372Z,31.20
2018-02-25T13:30:21.144Z,30.70
2018-02-25T13:33:24.443Z,30.20
2018-02-25T13:36:27.889Z,29.90
2018-02-25T13:39:31.358Z,29.70
2018-02-25T13:42:35.524Z,30.30
2018-02-25T13:45:38.966Z,30.10
2018-02-25T13:48:42.329Z,29.40
2018-02-25T13:51:45.674Z,29.30
2018-02-25T13:54:49.083Z,29.00
2018-02-25T13:57:53.824Z,28.90
2018-02-25T14:00:58.805Z,28.40
2018-02-25T14:04:02.537Z,28.60
2018-02-25T14:07:05.836Z,28.90
2018-02-25T14:10:09.394Z,28.80
2018-02-25T14:13:12.858Z,28.90
2018-02-25T14:16:16.242Z,29.30
2018-02-25T14:19:19.613Z,29.60
2018-02-25T14:22:23.031Z,29.20
2018-02-25T14:25:26.746Z,29.50
2018-02-25T14:28:30.035Z,30.30
2018-02-25T14:31:34.462Z,30.40
2018-02-25T14:34:37.769Z,30.00
2018-02-25T14:37:41.126Z,30.10
2018-02-25T14:40:45.168Z,31.50
2018-02-25T14:43:48.664Z,31.50
2018-02-25T14:46:52.263Z,32.20
2018-02-25T14:49:55.664Z,32.80
2018-02-25T14:52:59.451Z,33.50
2018-02-25T14:56:03.129Z,34.00
2018-02-25T14:59:06.558Z,33.80
2018-02-25T15:02:09.951Z,34.40
2018-02-25T15:05:13.380Z,34.80
2018-02-25T15:08:16.775Z,35.30
2018-02-25T15:11:20.599Z,35.40
2018-02-25T15:14:23.959Z,35.30
2018-02-25T15:17:27.363Z,36.00
2018-02-25T15:20:30.861Z,35.80
2018-02-25T15:23:34.248Z,36.20
2018-02-25T15:26:37.581Z,37.10
2018-02-25T15:29:40.927Z,36.60
2018-02-25T15:32:45.098Z,36.30
2018-02-25T15:35:48.489Z,35.80
2018-02-25T15:38:52.236Z,36.10
2018-02-25T15:41:55.587Z,36.90
2018-02-25T15:44:58.987Z,37.50
2018-02-25T15:48:02.382Z,37.20
2018-02-25T15:51:05.741Z,37.60
2018-02-25T15:54:10.058Z,37.80
2018-02-25T15:57:13.434Z,37.50
2018-02-25T16:00:17.241Z,38.00
2018-02-25T16:03:20.634Z,39.20
2018-02-25T16:06:23.923Z,38.20
2018-02-25T16:09:27.423Z,38.40
2018-02-25T16:12:30.778Z,38.90
2018-02-25T16:15:34.209Z,38.40
2018-02-25T16:18:37.605Z,38.80
2018-02-25T16:21:40.966Z,38.90
2018-02-25T16:24:45.366Z,40.00
2018-02-25T16:27:48.716Z,39.50
2018-02-25T16:30:52.109Z,40.40
2018-02-25T16:33:55.435Z,40.00
2018-02-25T16:36:59.673Z,40.70
2018-02-25T16:40:03.027Z,40.40
2018-02-25T16:43:06.442Z,40.50
2018-02-25T16:46:10.168Z,40.90
2018-02-25T16:49:13.461Z,41.20
2018-02-25T16:52:17.270Z,40.90
2018-02-25T16:55:20.578Z,41.10
2018-02-25T16:58:23.897Z,41.20
2018-02-25T17:01:28.008Z,41.60
2018-02-25T17:04:32.231Z,41.70
2018-02-25T17:07:36.392Z,42.30
2018-02-25T17:10:39.888Z,41.60
2018-02-25T17:13:43.236Z,41.90
2018-02-25T17:16:46.628Z,41.90
2018-02-25T17:19:50.017Z,42.20
2018-02-25T17:22:53.443Z,42.60
2018-02-25T17:25:56.819Z,42.70
2018-02-25T17:29:00.172Z,43.10
2018-02-25T17:32:03.573Z,43.10
2018-02-25T17:35:06.958Z,42.90
2018-02-25T17:38:10.310Z,43.30
2018-02-25T17:41:13.729Z,43.40
2018-02-25T17:44:18.224Z,43.90
2018-02-25T17:47:21.625Z,43.60
2018-02-25T17:50:25.031Z,43.70
2018-02-25T17:53:28.433Z,44.00
2018-02-25T17:56:31.837Z,43.90
2018-02-25T17:59:36.024Z,44.90
2018-02-25T18:02:40.233Z,45.00
2018-02-25T18:05:43.651Z,44.50
2018-02-25T18:08:47.012Z,44.80
2018-02-25T18:11:51.446Z,45.20
2018-02-25T18:14:54.819Z,45.70
2018-02-25T18:17:58.240Z,45.60
2018-02-25T18:21:01.693Z,45.50
2018-02-25T18:24:05.857Z,46.60
2018-02-25T18:27:09.295Z,46.30
2018-02-25T18:30:12.766Z,46.30
2018-02-25T18:33:16.532Z,46.30
2018-02-25T18:36:20.294Z,46.60
2018-02-25T18:39:24.471Z,46.70
2018-02-25T18:42:27.939Z,47.10
2018-02-25T18:45:32.110Z,47.30
2018-02-25T18:48:35.501Z,47.20
2018-02-25T18:51:39.626Z,47.50
2018-02-25T18:54:43.059Z,47.20
2018-02-25T18:57:46.550Z,47.30
2018-02-25T19:00:49.990Z,47.70
2018-02-25T19:03:53.388Z,47.00
2018-02-25T19:06:57.640Z,47.40
2018-02-25T19:10:01.086Z,47.00
2018-02-25T19:13:04.552Z,47.60
2018-02-25T19:16:07.822Z,47.90
2018-02-25T19:19:11.228Z,47.60
2018-02-25T19:22:14.725Z,47.60
2018-02-25T19:25:18.860Z,47.90
2018-02-25T19:28:22.627Z,47.50
2018-02-25T19:31:25.968Z,47.90
2018-02-25T19:34:29.313Z,48.00
2018-02-25T19:37:38.265Z,48.40
2018-02-25T19:40:47.324Z,48.30
2018-02-25T19:43:50.641Z,48.40
2018-02-25T19:46:54.006Z,48.30
2018-02-25T19:49:57.383Z,48.20
2018-02-25T19:53:01.513Z,48.80
2018-02-25T19:56:05.803Z,49.10
2018-02-25T19:59:09.140Z,48.80
2018-02-25T20:02:12.565Z,49.10
2018-02-25T20:05:15.936Z,49.60
2018-02-25T20:08:19.334Z,49.70
2018-02-25T20:11:23.521Z,50.10
2018-02-25T20:14:27.173Z,49.80
2018-02-25T20:17:30.519Z,49.90
2018-02-25T20:20:33.918Z,49.80
2018-02-25T20:23:38.442Z,50.10
2018-02-25T20:26:42.134Z,50.20
2018-02-25T20:29:46.431Z,51.20
2018-02-25T20:32:50.586Z,51.50
2018-02-25T20:35:53.969Z,51.10
2018-02-25T20:38:57.326Z,51.10
2018-02-25T20:42:00.759Z,51.10
2018-02-25T20:45:04.212Z,51.50
2018-02-25T20:48:08.384Z,52.00
2018-02-25T20:51:11.799Z,51.60
2018-02-25T20:54:15.464Z,51.80
2018-02-25T20:57:18.853Z,51.60
2018-02-25T21:00:22.204Z,52.00
2018-02-25T21:03:25.608Z,51.80
2018-02-25T21:06:28.977Z,52.00
2018-02-25T21:09:32.358Z,52.00
2018-02-25T21:12:35.731Z,52.20
2018-02-25T21:15:39.185Z,52.00
2018-02-25T21:18:43.346Z,53.00
2018-02-25T21:21:47.013Z,52.50
2018-02-25T21:24:50.554Z,52.80
2018-02-25T21:27:54.331Z,53.00
2018-02-25T21:30:57.722Z,53.20
2018-02-25T21:34:01.891Z,54.30
2018-02-25T21:37:05.351Z,53.90
2018-02-25T21:40:08.765Z,54.40
2018-02-25T21:43:12.899Z,54.50
2018-02-25T21:46:16.496Z,54.00
2018-02-25T21:49:19.894Z,54.10
2018-02-25T21:52:24.041Z,54.60
2018-02-25T21:55:27.844Z,54.30
2018-02-25T21:58:37.025Z,54.30
2018-02-25T22:01:46.836Z,54.50
2018-02-25T22:04:50.207Z,54.10
2018-02-25T22:07:53.569Z,54.30
2018-02-25T22:10:57.257Z,55.00
2018-02-25T22:14:00.616Z,54.70
2018-02-25T22:17:04.047Z,55.00
2018-02-25T22:20:07.573Z,55.50
2018-02-25T22:23:10.986Z,55.40
2018-02-25T22:26:14.360Z,55.80
2018-02-25T22:29:17.910Z,56.00
2018-02-25T22:32:22.226Z,57.60
2018-02-25T22:35:25.851Z,56.70
2018-02-25T22:38:29.247Z,56.50
2018-02-25T22:41:32.614Z,56.30
2018-02-25T22:44:36.442Z,56.50
2018-02-25T22:47:39.777Z,56.60
2018-02-25T22:50:43.157Z,56.80
2018-02-25T22:53:46.635Z,56.90
2018-02-25T22:56:50.771Z,57.80
2018-02-25T22:59:54.118Z,57.50
2018-02-25T23:02:57.521Z,58.40
2018-02-25T23:06:00.884Z,57.60
2018-02-25T23:09:04.273Z,57.90
2018-02-25T23:12:07.640Z,58.50
2018-02-25T23:15:11.021Z,58.60
2018-02-25T23:18:14.402Z,59.50
2018-02-25T23:21:17.868Z,58.80
2018-02-25T23:24:21.848Z,59.30
2018-02-25T23:27:26.070Z,60.90
2018-02-25T23:30:30.192Z,60.40
2018-02-25T23:33:33.588Z,60.20
2018-02-25T23:36:37.786Z,60.60
2018-02-25T23:39:41.225Z,60.40
2018-02-25T23:42:44.584Z,60.50
2018-02-25T23:45:49.441Z,61.40
2018-02-25T23:48:53.010Z,61.20
2018-02-25T23:51:56.374Z,60.80
2018-02-25T23:54:59.953Z,61.30
2018-02-25T23:58:04.093Z,61.70
